PWSweather.com
Personal Weather Stations
Station Observations
MIKESPOST
YorkGB

YorkGB

Lat: 53.9577018, Lon: -1.0822855

Elevation: 0

Station Type: WH1081

High Low Average
Temperature 54.3°F12.4°C 33.4°F0.8°C 45.9°F7.7°C
Dew Point 45.7°F7.6°C 29.7°F-1.3°C 38.9°F3.8°C
Winds 4.1 mph 6.6 kmh Calm Calm 1.0 mph SW1.6 kmh SW
Wind Gusts 10.4 mph16.7 kmh -- 3.0 mph4.8 kmh
Humidity 87% 60% 77%
Pressure 30.14 in1020.7 mb 30.01 in1016.3 mb -
Precipitation 0.00 in0.0 mm - -
Hour Temp Dew Point Humidity Winds Wind Gusts Pressure Precip Precip Rate Daily Precip Total
12:07 AM 43.7°F6.5°C 38.2°F3.4°C 81% 0.1 mph NW0.2 kmh NW 1.0 mph1.6 kmh 30.06 in1017.9 mb 0.00 in0.0 mm 0.00 in/hr0.0 mm/hr 0.00 in0.0 mm
12:17 AM 43.7°F6.5°C 38.2°F3.4°C 81% 0.7 mph SW1.1 kmh SW 2.3 mph3.7 kmh 30.06 in1017.9 mb 0.00 in0.0 mm 0.00 in/hr0.0 mm/hr 0.00 in0.0 mm
12:27 AM 43.5°F6.4°C 38.0°F3.3°C 81% Calm Calm -- 30.06 in1017.9 mb 0.00 in0.0 mm 0.00 in/hr0.0 mm/hr 0.00 in0.0 mm
12:37 AM 43.5°F6.4°C 38.0°F3.3°C 81% Calm Calm -- 30.06 in1017.9 mb 0.00 in0.0 mm 0.00 in/hr0.0 mm/hr 0.00 in0.0 mm
12:47 AM 43.5°F6.4°C 38.0°F3.3°C 81% 0.2 mph W0.3 kmh W 1.0 mph1.6 kmh 30.06 in1017.9 mb 0.00 in0.0 mm 0.00 in/hr0.0 mm/hr 0.00 in0.0 mm
12:57 AM 43.5°F6.4°C 38.0°F3.3°C 81% Calm Calm -- 30.05 in1017.6 mb 0.00 in0.0 mm 0.00 in/hr0.0 mm/hr 0.00 in0.0 mm
01:07 AM 43.5°F6.4°C 38.0°F3.3°C 81% Calm Calm -- 30.05 in1017.6 mb 0.00 in0.0 mm 0.00 in/hr0.0 mm/hr 0.00 in0.0 mm
01:17 AM 43.5°F6.4°C 38.0°F3.3°C 81% Calm Calm -- 30.05 in1017.6 mb 0.00 in0.0 mm 0.00 in/hr0.0 mm/hr 0.00 in0.0 mm
01:27 AM 43.5°F6.4°C 38.4°F3.6°C 82% Calm Calm -- 30.05 in1017.6 mb 0.00 in0.0 mm 0.00 in/hr0.0 mm/hr 0.00 in0.0 mm
01:37 AM 43.5°F6.4°C 38.4°F3.6°C 82% Calm Calm -- 30.05 in1017.6 mb 0.00 in0.0 mm 0.00 in/hr0.0 mm/hr 0.00 in0.0 mm
01:47 AM 43.5°F6.4°C 38.4°F3.6°C 82% Calm Calm -- 30.04 in1017.3 mb 0.00 in0.0 mm 0.00 in/hr0.0 mm/hr 0.00 in0.0 mm
01:57 AM 43.3°F6.3°C 38.5°F3.6°C 83% Calm Calm -- 30.04 in1017.3 mb 0.00 in0.0 mm 0.00 in/hr0.0 mm/hr 0.00 in0.0 mm
02:07 AM 43.3°F6.3°C 38.5°F3.6°C 83% Calm Calm -- 30.04 in1017.3 mb 0.00 in0.0 mm 0.00 in/hr0.0 mm/hr 0.00 in0.0 mm
02:17 AM 43.3°F6.3°C 38.5°F3.6°C 83% Calm Calm -- 30.04 in1017.3 mb 0.00 in0.0 mm 0.00 in/hr0.0 mm/hr 0.00 in0.0 mm
02:27 AM 43.2°F6.2°C 38.6°F3.7°C 84% 0.2 mph W0.3 kmh W 1.0 mph1.6 kmh 30.03 in1016.9 mb 0.00 in0.0 mm 0.00 in/hr0.0 mm/hr 0.00 in0.0 mm
02:37 AM 43.2°F6.2°C 38.9°F3.8°C 85% 0.2 mph W0.3 kmh W 1.0 mph1.6 kmh 30.03 in1016.9 mb 0.00 in0.0 mm 0.00 in/hr0.0 mm/hr 0.00 in0.0 mm
02:47 AM 43.2°F6.2°C 38.9°F3.8°C 85% 0.5 mph NW0.8 kmh NW 1.0 mph1.6 kmh 30.03 in1016.9 mb 0.00 in0.0 mm 0.00 in/hr0.0 mm/hr 0.00 in0.0 mm
02:57 AM 43.2°F6.2°C 38.6°F3.7°C 84% 0.3 mph NW0.5 kmh NW 1.0 mph1.6 kmh 30.03 in1016.9 mb 0.00 in0.0 mm 0.00 in/hr0.0 mm/hr 0.00 in0.0 mm
03:07 AM 43.2°F6.2°C 38.6°F3.7°C 84% Calm Calm -- 30.03 in1016.9 mb 0.00 in0.0 mm 0.00 in/hr0.0 mm/hr 0.00 in0.0 mm
03:17 AM 43.2°F6.2°C 38.6°F3.7°C 84% 0.2 mph W0.3 kmh W 1.0 mph1.6 kmh 30.03 in1016.9 mb 0.00 in0.0 mm 0.00 in/hr0.0 mm/hr 0.00 in0.0 mm
03:27 AM 43.2°F6.2°C 38.9°F3.8°C 85% 0.3 mph NW0.5 kmh NW 1.0 mph1.6 kmh 30.03 in1016.9 mb 0.00 in0.0 mm 0.00 in/hr0.0 mm/hr 0.00 in0.0 mm
03:37 AM 43.2°F6.2°C 38.9°F3.8°C 85% 0.3 mph W0.5 kmh W 1.0 mph1.6 kmh 30.03 in1016.9 mb 0.00 in0.0 mm 0.00 in/hr0.0 mm/hr 0.00 in0.0 mm
03:47 AM 43.0°F6.1°C 39.1°F3.9°C 86% 0.1 mph W0.2 kmh W 1.0 mph1.6 kmh 30.03 in1016.9 mb 0.00 in0.0 mm 0.00 in/hr0.0 mm/hr 0.00 in0.0 mm
03:57 AM 43.0°F6.1°C 39.1°F3.9°C 86% 0.2 mph W0.3 kmh W 1.0 mph1.6 kmh 30.03 in1016.9 mb 0.00 in0.0 mm 0.00 in/hr0.0 mm/hr 0.00 in0.0 mm
04:07 AM 43.0°F6.1°C 39.1°F3.9°C 86% Calm Calm -- 30.02 in1016.6 mb 0.00 in0.0 mm 0.00 in/hr0.0 mm/hr 0.00 in0.0 mm
04:17 AM 43.0°F6.1°C 39.1°F3.9°C 86% Calm Calm -- 30.02 in1016.6 mb 0.00 in0.0 mm 0.00 in/hr0.0 mm/hr 0.00 in0.0 mm
04:27 AM 43.0°F6.1°C 39.1°F3.9°C 86% Calm Calm -- 30.02 in1016.6 mb 0.00 in0.0 mm 0.00 in/hr0.0 mm/hr 0.00 in0.0 mm
04:37 AM 43.0°F6.1°C 39.1°F3.9°C 86% Calm Calm -- 30.02 in1016.6 mb 0.00 in0.0 mm 0.00 in/hr0.0 mm/hr 0.00 in0.0 mm
04:47 AM 43.0°F6.1°C 39.4°F4.1°C 87% Calm Calm -- 30.02 in1016.6 mb 0.00 in0.0 mm 0.00 in/hr0.0 mm/hr 0.00 in0.0 mm
04:57 AM 43.0°F6.1°C 39.4°F4.1°C 87% Calm Calm -- 30.02 in1016.6 mb 0.00 in0.0 mm 0.00 in/hr0.0 mm/hr 0.00 in0.0 mm
05:07 AM 43.0°F6.1°C 39.4°F4.1°C 87% 0.1 mph W0.2 kmh W 1.0 mph1.6 kmh 30.02 in1016.6 mb 0.00 in0.0 mm 0.00 in/hr0.0 mm/hr 0.00 in0.0 mm
05:17 AM 43.2°F6.2°C 39.5°F4.2°C 87% Calm Calm 1.0 mph1.6 kmh 30.02 in1016.6 mb 0.00 in0.0 mm 0.00 in/hr0.0 mm/hr 0.00 in0.0 mm
05:27 AM 43.2°F6.2°C 39.5°F4.2°C 87% Calm Calm -- 30.02 in1016.6 mb 0.00 in0.0 mm 0.00 in/hr0.0 mm/hr 0.00 in0.0 mm
05:37 AM 43.2°F6.2°C 39.5°F4.2°C 87% Calm Calm 1.0 mph1.6 kmh 30.02 in1016.6 mb 0.00 in0.0 mm 0.00 in/hr0.0 mm/hr 0.00 in0.0 mm
05:47 AM 43.3°F6.3°C 39.7°F4.3°C 87% 0.8 mph WNW1.3 kmh WNW 1.0 mph1.6 kmh 30.02 in1016.6 mb 0.00 in0.0 mm 0.00 in/hr0.0 mm/hr 0.00 in0.0 mm
05:57 AM 43.5°F6.4°C 39.9°F4.4°C 87% 1.1 mph WNW1.8 kmh WNW 2.3 mph3.7 kmh 30.03 in1016.9 mb 0.00 in0.0 mm 0.00 in/hr0.0 mm/hr 0.00 in0.0 mm
06:07 AM 43.5°F6.4°C 39.9°F4.4°C 87% 0.6 mph NW1.0 kmh NW 2.3 mph3.7 kmh 30.02 in1016.6 mb 0.00 in0.0 mm 0.00 in/hr0.0 mm/hr 0.00 in0.0 mm
06:17 AM 43.9°F6.6°C 40.0°F4.4°C 86% 0.9 mph WNW1.4 kmh WNW 1.0 mph1.6 kmh 30.02 in1016.6 mb 0.00 in0.0 mm 0.00 in/hr0.0 mm/hr 0.00 in0.0 mm
06:27 AM 44.1°F6.7°C 40.1°F4.5°C 86% 0.9 mph WNW1.4 kmh WNW 1.0 mph1.6 kmh 30.02 in1016.6 mb 0.00 in0.0 mm 0.00 in/hr0.0 mm/hr 0.00 in0.0 mm
06:37 AM 45.0°F7.2°C 41.0°F5.0°C 86% 0.8 mph NW1.3 kmh NW 1.0 mph1.6 kmh 30.02 in1016.6 mb 0.00 in0.0 mm 0.00 in/hr0.0 mm/hr 0.00 in0.0 mm
06:47 AM 46.2°F7.9°C 41.9°F5.5°C 85% 0.9 mph NW1.4 kmh NW 1.0 mph1.6 kmh 30.02 in1016.6 mb 0.00 in0.0 mm 0.00 in/hr0.0 mm/hr 0.00 in0.0 mm
06:57 AM 46.9°F8.3°C 41.7°F5.4°C 82% 1.1 mph NW1.8 kmh NW 2.3 mph3.7 kmh 30.02 in1016.6 mb 0.00 in0.0 mm 0.00 in/hr0.0 mm/hr 0.00 in0.0 mm
07:07 AM 47.8°F8.8°C 41.6°F5.3°C 79% 1.7 mph NW2.7 kmh NW 2.3 mph3.7 kmh 30.02 in1016.6 mb 0.00 in0.0 mm 0.00 in/hr0.0 mm/hr 0.00 in0.0 mm
07:17 AM 48.4°F9.1°C 41.4°F5.2°C 77% 1.8 mph W2.9 kmh W 2.3 mph3.7 kmh 30.03 in1016.9 mb 0.00 in0.0 mm 0.00 in/hr0.0 mm/hr 0.00 in0.0 mm
07:27 AM 47.7°F8.7°C 39.3°F4.1°C 73% 1.5 mph NW2.4 kmh NW 3.4 mph5.5 kmh 30.03 in1016.9 mb 0.00 in0.0 mm 0.00 in/hr0.0 mm/hr 0.00 in0.0 mm
07:37 AM 47.5°F8.6°C 39.1°F3.9°C 73% 0.9 mph NNW1.4 kmh NNW 1.0 mph1.6 kmh 30.03 in1016.9 mb 0.00 in0.0 mm 0.00 in/hr0.0 mm/hr 0.00 in0.0 mm
07:47 AM 47.3°F8.5°C 39.7°F4.3°C 75% 0.9 mph NNW1.4 kmh NNW 2.3 mph3.7 kmh 30.03 in1016.9 mb 0.00 in0.0 mm 0.00 in/hr0.0 mm/hr 0.00 in0.0 mm
07:57 AM 47.3°F8.5°C 40.0°F4.4°C 76% 0.9 mph NW1.4 kmh NW 2.3 mph3.7 kmh 30.02 in1016.6 mb 0.00 in0.0 mm 0.00 in/hr0.0 mm/hr 0.00 in0.0 mm
08:07 AM 47.7°F8.7°C 40.0°F4.4°C 75% 1.0 mph NW1.6 kmh NW 2.3 mph3.7 kmh 30.02 in1016.6 mb 0.00 in0.0 mm 0.00 in/hr0.0 mm/hr 0.00 in0.0 mm
08:17 AM 48.0°F8.9°C 40.4°F4.7°C 75% 0.6 mph NW1.0 kmh NW 1.0 mph1.6 kmh 30.03 in1016.9 mb 0.00 in0.0 mm 0.00 in/hr0.0 mm/hr 0.00 in0.0 mm
08:27 AM 48.2°F9.0°C 40.9°F4.9°C 76% 0.5 mph N0.8 kmh N 1.0 mph1.6 kmh 30.02 in1016.6 mb 0.00 in0.0 mm 0.00 in/hr0.0 mm/hr 0.00 in0.0 mm
08:37 AM 48.9°F9.4°C 41.2°F5.1°C 75% 0.8 mph NW1.3 kmh NW 1.0 mph1.6 kmh 30.02 in1016.6 mb 0.00 in0.0 mm 0.00 in/hr0.0 mm/hr 0.00 in0.0 mm
08:47 AM 49.1°F9.5°C 41.1°F5.1°C 74% 0.7 mph NNW1.1 kmh NNW 1.0 mph1.6 kmh 30.02 in1016.6 mb 0.00 in0.0 mm 0.00 in/hr0.0 mm/hr 0.00 in0.0 mm
08:57 AM 48.4°F9.1°C 40.4°F4.7°C 74% 0.8 mph N1.3 kmh N 1.0 mph1.6 kmh 30.03 in1016.9 mb 0.00 in0.0 mm 0.00 in/hr0.0 mm/hr 0.00 in0.0 mm
09:07 AM 48.4°F9.1°C 40.4°F4.7°C 74% 0.8 mph WNW1.3 kmh WNW 1.0 mph1.6 kmh 30.02 in1016.6 mb 0.00 in0.0 mm 0.00 in/hr0.0 mm/hr 0.00 in0.0 mm
09:17 AM 49.1°F9.5°C 41.4°F5.2°C 75% 1.1 mph W1.8 kmh W 2.3 mph3.7 kmh 30.03 in1016.9 mb 0.00 in0.0 mm 0.00 in/hr0.0 mm/hr 0.00 in0.0 mm
09:27 AM 49.8°F9.9°C 41.8°F5.4°C 74% 1.1 mph NW1.8 kmh NW 2.3 mph3.7 kmh 30.02 in1016.6 mb 0.00 in0.0 mm 0.00 in/hr0.0 mm/hr 0.00 in0.0 mm
09:37 AM 50.2°F10.1°C 42.1°F5.6°C 74% 0.8 mph NW1.3 kmh NW 2.3 mph3.7 kmh 30.03 in1016.9 mb 0.00 in0.0 mm 0.00 in/hr0.0 mm/hr 0.00 in0.0 mm
09:47 AM 50.4°F10.2°C 42.3°F5.7°C 74% 1.3 mph NW2.1 kmh NW 2.3 mph3.7 kmh 30.02 in1016.6 mb 0.00 in0.0 mm 0.00 in/hr0.0 mm/hr 0.00 in0.0 mm
09:57 AM 50.2°F10.1°C 42.1°F5.6°C 74% 1.8 mph NW2.9 kmh NW 4.7 mph7.6 kmh 30.02 in1016.6 mb 0.00 in0.0 mm 0.00 in/hr0.0 mm/hr 0.00 in0.0 mm
10:07 AM 49.8°F9.9°C 41.8°F5.4°C 74% 1.8 mph NW2.9 kmh NW 3.4 mph5.5 kmh 30.02 in1016.6 mb 0.00 in0.0 mm 0.00 in/hr0.0 mm/hr 0.00 in0.0 mm
10:17 AM 49.5°F9.7°C 41.8°F5.4°C 75% 1.7 mph NW2.7 kmh NW 3.4 mph5.5 kmh 30.02 in1016.6 mb 0.00 in0.0 mm 0.00 in/hr0.0 mm/hr 0.00 in0.0 mm
10:27 AM 49.5°F9.7°C 42.5°F5.8°C 77% 1.0 mph NW1.6 kmh NW 2.3 mph3.7 kmh 30.02 in1016.6 mb 0.00 in0.0 mm 0.00 in/hr0.0 mm/hr 0.00 in0.0 mm
10:37 AM 50.2°F10.1°C 43.5°F6.4°C 78% 0.6 mph WNW1.0 kmh WNW 1.0 mph1.6 kmh 30.01 in1016.3 mb 0.00 in0.0 mm 0.00 in/hr0.0 mm/hr 0.00 in0.0 mm
10:47 AM 50.5°F10.3°C 43.5°F6.4°C 77% 1.3 mph NW2.1 kmh NW 2.3 mph3.7 kmh 30.01 in1016.3 mb 0.00 in0.0 mm 0.00 in/hr0.0 mm/hr 0.00 in0.0 mm
10:57 AM 50.4°F10.2°C 43.7°F6.5°C 78% 1.1 mph NNW1.8 kmh NNW 2.3 mph3.7 kmh 30.01 in1016.3 mb 0.00 in0.0 mm 0.00 in/hr0.0 mm/hr 0.00 in0.0 mm
11:07 AM 50.9°F10.5°C 44.2°F6.8°C 78% 1.2 mph NNW1.9 kmh NNW 2.3 mph3.7 kmh 30.01 in1016.3 mb 0.00 in0.0 mm 0.00 in/hr0.0 mm/hr 0.00 in0.0 mm
11:17 AM 52.0°F11.1°C 45.3°F7.4°C 78% 2.3 mph W3.7 kmh W 2.3 mph3.7 kmh 30.01 in1016.3 mb 0.00 in0.0 mm 0.00 in/hr0.0 mm/hr 0.00 in0.0 mm
11:27 AM 51.6°F10.9°C 44.9°F7.2°C 78% 1.3 mph SW2.1 kmh SW 2.3 mph3.7 kmh 30.01 in1016.3 mb 0.00 in0.0 mm 0.00 in/hr0.0 mm/hr 0.00 in0.0 mm
11:37 AM 51.3°F10.7°C 45.2°F7.3°C 80% 2.0 mph NW3.2 kmh NW 2.3 mph3.7 kmh 30.01 in1016.3 mb 0.00 in0.0 mm 0.00 in/hr0.0 mm/hr 0.00 in0.0 mm
11:47 AM 51.4°F10.8°C 45.7°F7.6°C 81% 1.7 mph N2.7 kmh N 4.7 mph7.6 kmh 30.01 in1016.3 mb 0.00 in0.0 mm 0.00 in/hr0.0 mm/hr 0.00 in0.0 mm
11:57 AM 51.6°F10.9°C 45.6°F7.6°C 80% 2.7 mph WNW4.3 kmh WNW 4.7 mph7.6 kmh 30.01 in1016.3 mb 0.00 in0.0 mm 0.00 in/hr0.0 mm/hr 0.00 in0.0 mm
12:07 PM 51.8°F11.0°C 45.1°F7.3°C 78% 2.9 mph NNW4.7 kmh NNW 4.7 mph7.6 kmh 30.01 in1016.3 mb 0.00 in0.0 mm 0.00 in/hr0.0 mm/hr 0.00 in0.0 mm
12:17 PM 52.0°F11.1°C 44.9°F7.2°C 77% 2.1 mph N3.4 kmh N 3.4 mph5.5 kmh 30.01 in1016.3 mb 0.00 in0.0 mm 0.00 in/hr0.0 mm/hr 0.00 in0.0 mm
12:27 PM 51.6°F10.9°C 44.2°F6.8°C 76% 2.3 mph WNW3.7 kmh WNW 3.4 mph5.5 kmh 30.01 in1016.3 mb 0.00 in0.0 mm 0.00 in/hr0.0 mm/hr 0.00 in0.0 mm
12:37 PM 51.6°F10.9°C 44.2°F6.8°C 76% 2.5 mph NW4.0 kmh NW 3.4 mph5.5 kmh 30.02 in1016.6 mb 0.00 in0.0 mm 0.00 in/hr0.0 mm/hr 0.00 in0.0 mm
12:47 PM 51.3°F10.7°C 43.5°F6.4°C 75% 3.0 mph WSW4.8 kmh WSW 3.4 mph5.5 kmh 30.02 in1016.6 mb 0.00 in0.0 mm 0.00 in/hr0.0 mm/hr 0.00 in0.0 mm
12:57 PM 52.3°F11.3°C 43.8°F6.6°C 73% 3.3 mph W5.3 kmh W 8.1 mph13.0 kmh 30.03 in1016.9 mb 0.00 in0.0 mm 0.00 in/hr0.0 mm/hr 0.00 in0.0 mm
01:07 PM 52.3°F11.3°C 43.4°F6.3°C 72% 3.0 mph WNW4.8 kmh WNW 8.1 mph13.0 kmh 30.03 in1016.9 mb 0.00 in0.0 mm 0.00 in/hr0.0 mm/hr 0.00 in0.0 mm
01:17 PM 51.6°F10.9°C 42.7°F5.9°C 72% 3.2 mph NW5.1 kmh NW 5.7 mph9.2 kmh 30.03 in1016.9 mb 0.00 in0.0 mm 0.00 in/hr0.0 mm/hr 0.00 in0.0 mm
01:27 PM 51.6°F10.9°C 43.1°F6.2°C 73% 2.8 mph NNW4.5 kmh NNW 4.7 mph7.6 kmh 30.03 in1016.9 mb 0.00 in0.0 mm 0.00 in/hr0.0 mm/hr 0.00 in0.0 mm
01:37 PM 50.9°F10.5°C 42.8°F6.0°C 74% 2.9 mph NW4.7 kmh NW 4.7 mph7.6 kmh 30.03 in1016.9 mb 0.00 in0.0 mm 0.00 in/hr0.0 mm/hr 0.00 in0.0 mm
01:47 PM 51.6°F10.9°C 43.5°F6.4°C 74% 2.5 mph NW4.0 kmh NW 5.7 mph9.2 kmh 30.03 in1016.9 mb 0.00 in0.0 mm 0.00 in/hr0.0 mm/hr 0.00 in0.0 mm
01:57 PM 52.2°F11.2°C 43.3°F6.3°C 72% 3.5 mph NNE5.6 kmh NNE 4.7 mph7.6 kmh 30.03 in1016.9 mb 0.00 in0.0 mm 0.00 in/hr0.0 mm/hr 0.00 in0.0 mm
02:07 PM 52.7°F11.5°C 42.6°F5.9°C 69% 3.0 mph NW4.8 kmh NW 4.7 mph7.6 kmh 30.03 in1016.9 mb 0.00 in0.0 mm 0.00 in/hr0.0 mm/hr 0.00 in0.0 mm
02:17 PM 52.2°F11.2°C 41.7°F5.4°C 68% 2.6 mph WNW4.2 kmh WNW 3.4 mph5.5 kmh 30.03 in1016.9 mb 0.00 in0.0 mm 0.00 in/hr0.0 mm/hr 0.00 in0.0 mm
02:27 PM 52.3°F11.3°C 41.9°F5.5°C 68% 3.6 mph NW5.8 kmh NW 10.4 mph16.7 kmh 30.03 in1016.9 mb 0.00 in0.0 mm 0.00 in/hr0.0 mm/hr 0.00 in0.0 mm
02:37 PM 52.0°F11.1°C 41.1°F5.1°C 67% 3.8 mph SW6.1 kmh SW 8.1 mph13.0 kmh 30.04 in1017.3 mb 0.00 in0.0 mm 0.00 in/hr0.0 mm/hr 0.00 in0.0 mm
02:47 PM 52.3°F11.3°C 41.5°F5.3°C 67% 2.9 mph NW4.7 kmh NW 3.4 mph5.5 kmh 30.03 in1016.9 mb 0.00 in0.0 mm 0.00 in/hr0.0 mm/hr 0.00 in0.0 mm
02:57 PM 52.3°F11.3°C 41.1°F5.1°C 66% 3.1 mph NNW5.0 kmh NNW 6.7 mph10.8 kmh 30.03 in1016.9 mb 0.00 in0.0 mm 0.00 in/hr0.0 mm/hr 0.00 in0.0 mm
03:07 PM 53.2°F11.8°C 41.9°F5.5°C 66% 2.5 mph NNW4.0 kmh NNW 4.7 mph7.6 kmh 30.03 in1016.9 mb 0.00 in0.0 mm 0.00 in/hr0.0 mm/hr 0.00 in0.0 mm
03:17 PM 53.6°F12.0°C 41.4°F5.2°C 64% 2.3 mph N3.7 kmh N 3.4 mph5.5 kmh 30.04 in1017.3 mb 0.00 in0.0 mm 0.00 in/hr0.0 mm/hr 0.00 in0.0 mm
03:27 PM 53.6°F12.0°C 40.1°F4.5°C 61% 2.6 mph WNW4.2 kmh WNW 4.7 mph7.6 kmh 30.04 in1017.3 mb 0.00 in0.0 mm 0.00 in/hr0.0 mm/hr 0.00 in0.0 mm
03:37 PM 54.1°F12.3°C 40.6°F4.8°C 61% 2.2 mph N3.5 kmh N 3.4 mph5.5 kmh 30.04 in1017.3 mb 0.00 in0.0 mm 0.00 in/hr0.0 mm/hr 0.00 in0.0 mm
03:47 PM 54.0°F12.2°C 40.0°F4.4°C 60% 2.6 mph N4.2 kmh N 6.7 mph10.8 kmh 30.04 in1017.3 mb 0.00 in0.0 mm 0.00 in/hr0.0 mm/hr 0.00 in0.0 mm
03:57 PM 52.9°F11.6°C 39.9°F4.4°C 62% 2.8 mph N4.5 kmh N 4.7 mph7.6 kmh 30.04 in1017.3 mb 0.00 in0.0 mm 0.00 in/hr0.0 mm/hr 0.00 in0.0 mm
04:07 PM 54.3°F12.4°C 41.2°F5.1°C 62% 2.5 mph NNE4.0 kmh NNE 4.7 mph7.6 kmh 30.05 in1017.6 mb 0.00 in0.0 mm 0.00 in/hr0.0 mm/hr 0.00 in0.0 mm
04:17 PM 52.3°F11.3°C 39.8°F4.3°C 63% 3.0 mph WNW4.8 kmh WNW 3.4 mph5.5 kmh 30.05 in1017.6 mb 0.00 in0.0 mm 0.00 in/hr0.0 mm/hr 0.00 in0.0 mm
04:27 PM 51.4°F10.8°C 40.6°F4.8°C 67% 2.1 mph WSW3.4 kmh WSW 3.4 mph5.5 kmh 30.05 in1017.6 mb 0.00 in0.0 mm 0.00 in/hr0.0 mm/hr 0.00 in0.0 mm
04:37 PM 52.2°F11.2°C 41.3°F5.2°C 67% 2.5 mph NW4.0 kmh NW 4.7 mph7.6 kmh 30.06 in1017.9 mb 0.00 in0.0 mm 0.00 in/hr0.0 mm/hr 0.00 in0.0 mm
04:47 PM 50.9°F10.5°C 40.5°F4.7°C 68% 2.7 mph WNW4.3 kmh WNW 4.7 mph7.6 kmh 30.06 in1017.9 mb 0.00 in0.0 mm 0.00 in/hr0.0 mm/hr 0.00 in0.0 mm
04:57 PM 50.7°F10.4°C 41.1°F5.1°C 70% 3.3 mph NW5.3 kmh NW 6.7 mph10.8 kmh 30.07 in1018.3 mb 0.00 in0.0 mm 0.00 in/hr0.0 mm/hr 0.00 in0.0 mm
05:07 PM 49.8°F9.9°C 40.3°F4.6°C 70% 4.1 mph WNW6.6 kmh WNW 6.7 mph10.8 kmh 30.07 in1018.3 mb 0.00 in0.0 mm 0.00 in/hr0.0 mm/hr 0.00 in0.0 mm
05:17 PM 49.5°F9.7°C 39.9°F4.4°C 70% 3.3 mph S5.3 kmh S 5.7 mph9.2 kmh 30.07 in1018.3 mb 0.00 in0.0 mm 0.00 in/hr0.0 mm/hr 0.00 in0.0 mm
05:27 PM 48.0°F8.9°C 39.7°F4.3°C 73% 3.2 mph NNE5.1 kmh NNE 5.7 mph9.2 kmh 30.08 in1018.6 mb 0.00 in0.0 mm 0.00 in/hr0.0 mm/hr 0.00 in0.0 mm
05:37 PM 47.3°F8.5°C 40.0°F4.4°C 76% 2.6 mph S4.2 kmh S 3.4 mph5.5 kmh 30.08 in1018.6 mb 0.00 in0.0 mm 0.00 in/hr0.0 mm/hr 0.00 in0.0 mm
05:47 PM 47.1°F8.4°C 39.5°F4.2°C 75% 2.9 mph WSW4.7 kmh WSW 4.7 mph7.6 kmh 30.08 in1018.6 mb 0.00 in0.0 mm 0.00 in/hr0.0 mm/hr 0.00 in0.0 mm
05:57 PM 46.6°F8.1°C 38.3°F3.5°C 73% 3.5 mph N5.6 kmh N 5.7 mph9.2 kmh 30.08 in1018.6 mb 0.00 in0.0 mm 0.00 in/hr0.0 mm/hr 0.00 in0.0 mm
06:07 PM 46.2°F7.9°C 37.9°F3.3°C 73% 3.1 mph SW5.0 kmh SW 5.7 mph9.2 kmh 30.09 in1019.0 mb 0.00 in0.0 mm 0.00 in/hr0.0 mm/hr 0.00 in0.0 mm
06:17 PM 46.0°F7.8°C 37.0°F2.8°C 71% 3.1 mph NNW5.0 kmh NNW 5.7 mph9.2 kmh 30.09 in1019.0 mb 0.00 in0.0 mm 0.00 in/hr0.0 mm/hr 0.00 in0.0 mm
06:27 PM 46.0°F7.8°C 37.0°F2.8°C 71% 3.4 mph SSE5.5 kmh SSE 5.7 mph9.2 kmh 30.09 in1019.0 mb 0.00 in0.0 mm 0.00 in/hr0.0 mm/hr 0.00 in0.0 mm
06:37 PM 45.5°F7.5°C 36.5°F2.5°C 71% 2.0 mph E3.2 kmh E 4.7 mph7.6 kmh 30.09 in1019.0 mb 0.00 in0.0 mm 0.00 in/hr0.0 mm/hr 0.00 in0.0 mm
06:47 PM 44.8°F7.1°C 36.2°F2.3°C 72% 2.5 mph N4.0 kmh N 4.7 mph7.6 kmh 30.09 in1019.0 mb 0.00 in0.0 mm 0.00 in/hr0.0 mm/hr 0.00 in0.0 mm
06:57 PM 44.2°F6.8°C 34.9°F1.6°C 70% 3.3 mph NW5.3 kmh NW 5.7 mph9.2 kmh 30.09 in1019.0 mb 0.00 in0.0 mm 0.00 in/hr0.0 mm/hr 0.00 in0.0 mm
07:07 PM 43.9°F6.6°C 34.6°F1.4°C 70% 2.8 mph WSW4.5 kmh WSW 4.7 mph7.6 kmh 30.10 in1019.3 mb 0.00 in0.0 mm 0.00 in/hr0.0 mm/hr 0.00 in0.0 mm
07:17 PM 43.9°F6.6°C 35.0°F1.7°C 71% 2.3 mph W3.7 kmh W 3.4 mph5.5 kmh 30.11 in1019.6 mb 0.00 in0.0 mm 0.00 in/hr0.0 mm/hr 0.00 in0.0 mm
07:27 PM 43.7°F6.5°C 34.8°F1.6°C 71% 2.9 mph N4.7 kmh N 4.7 mph7.6 kmh 30.11 in1019.6 mb 0.00 in0.0 mm 0.00 in/hr0.0 mm/hr 0.00 in0.0 mm
07:37 PM 43.2°F6.2°C 34.6°F1.4°C 72% 2.0 mph NW3.2 kmh NW 5.7 mph9.2 kmh 30.11 in1019.6 mb 0.00 in0.0 mm 0.00 in/hr0.0 mm/hr 0.00 in0.0 mm
07:47 PM 42.6°F5.9°C 34.5°F1.4°C 73% 2.4 mph NNW3.9 kmh NNW 5.7 mph9.2 kmh 30.11 in1019.6 mb 0.00 in0.0 mm 0.00 in/hr0.0 mm/hr 0.00 in0.0 mm
07:57 PM 41.9°F5.5°C 33.8°F1.0°C 73% 1.3 mph WNW2.1 kmh WNW 2.3 mph3.7 kmh 30.12 in1020.0 mb 0.00 in0.0 mm 0.00 in/hr0.0 mm/hr 0.00 in0.0 mm
08:07 PM 41.2°F5.1°C 33.1°F0.6°C 73% 0.3 mph W0.5 kmh W 2.3 mph3.7 kmh 30.12 in1020.0 mb 0.00 in0.0 mm 0.00 in/hr0.0 mm/hr 0.00 in0.0 mm
08:17 PM 40.6°F4.8°C 32.9°F0.5°C 74% 1.1 mph NW1.8 kmh NW 2.3 mph3.7 kmh 30.12 in1020.0 mb 0.00 in0.0 mm 0.00 in/hr0.0 mm/hr 0.00 in0.0 mm
08:27 PM 40.3°F4.6°C 32.9°F0.5°C 75% 0.9 mph N1.4 kmh N 2.3 mph3.7 kmh 30.12 in1020.0 mb 0.00 in0.0 mm 0.00 in/hr0.0 mm/hr 0.00 in0.0 mm
08:37 PM 39.7°F4.3°C 32.7°F0.4°C 76% 0.4 mph WNW0.6 kmh WNW 2.3 mph3.7 kmh 30.12 in1020.0 mb 0.00 in0.0 mm 0.00 in/hr0.0 mm/hr 0.00 in0.0 mm
08:47 PM 39.4°F4.1°C 32.7°F0.4°C 77% 0.2 mph NW0.3 kmh NW 1.0 mph1.6 kmh 30.12 in1020.0 mb 0.00 in0.0 mm 0.00 in/hr0.0 mm/hr 0.00 in0.0 mm
08:57 PM 38.8°F3.8°C 32.5°F0.3°C 78% 0.4 mph N0.6 kmh N 2.3 mph3.7 kmh 30.12 in1020.0 mb 0.00 in0.0 mm 0.00 in/hr0.0 mm/hr 0.00 in0.0 mm
09:07 PM 38.3°F3.5°C 32.3°F0.2°C 79% 0.1 mph WNW0.2 kmh WNW 1.0 mph1.6 kmh 30.12 in1020.0 mb 0.00 in0.0 mm 0.00 in/hr0.0 mm/hr 0.00 in0.0 mm
09:17 PM 37.9°F3.3°C 32.0°F0.0°C 79% 0.4 mph W0.6 kmh W 2.3 mph3.7 kmh 30.13 in1020.3 mb 0.00 in0.0 mm 0.00 in/hr0.0 mm/hr 0.00 in0.0 mm
09:27 PM 37.4°F3.0°C 31.8°F-0.1°C 80% 0.1 mph N0.2 kmh N 1.0 mph1.6 kmh 30.13 in1020.3 mb 0.00 in0.0 mm 0.00 in/hr0.0 mm/hr 0.00 in0.0 mm
09:37 PM 37.2°F2.9°C 31.9°F-0.1°C 81% 0.7 mph NE1.1 kmh NE 3.4 mph5.5 kmh 30.13 in1020.3 mb 0.00 in0.0 mm 0.00 in/hr0.0 mm/hr 0.00 in0.0 mm
09:47 PM 37.2°F2.9°C 32.2°F0.1°C 82% 0.2 mph NW0.3 kmh NW 1.0 mph1.6 kmh 30.13 in1020.3 mb 0.00 in0.0 mm 0.00 in/hr0.0 mm/hr 0.00 in0.0 mm
09:57 PM 37.0°F2.8°C 32.1°F0.1°C 82% Calm Calm -- 30.13 in1020.3 mb 0.00 in0.0 mm 0.00 in/hr0.0 mm/hr 0.00 in0.0 mm
10:07 PM 36.7°F2.6°C 31.7°F-0.2°C 82% Calm Calm -- 30.14 in1020.7 mb 0.00 in0.0 mm 0.00 in/hr0.0 mm/hr 0.00 in0.0 mm
10:17 PM 36.1°F2.3°C 31.2°F-0.4°C 82% Calm Calm -- 30.13 in1020.3 mb 0.00 in0.0 mm 0.00 in/hr0.0 mm/hr 0.00 in0.0 mm
10:27 PM 35.8°F2.1°C 31.1°F-0.5°C 83% Calm Calm -- 30.13 in1020.3 mb 0.00 in0.0 mm 0.00 in/hr0.0 mm/hr 0.00 in0.0 mm
10:37 PM 35.2°F1.8°C 30.9°F-0.6°C 84% Calm Calm -- 30.14 in1020.7 mb 0.00 in0.0 mm 0.00 in/hr0.0 mm/hr 0.00 in0.0 mm
10:47 PM 34.9°F1.6°C 30.5°F-0.8°C 84% Calm Calm -- 30.14 in1020.7 mb 0.00 in0.0 mm 0.00 in/hr0.0 mm/hr 0.00 in0.0 mm
10:57 PM 34.5°F1.4°C 30.5°F-0.8°C 85% Calm Calm -- 30.14 in1020.7 mb 0.00 in0.0 mm 0.00 in/hr0.0 mm/hr 0.00 in0.0 mm
11:07 PM 34.2°F1.2°C 30.1°F-1.1°C 85% Calm Calm -- 30.14 in1020.7 mb 0.00 in0.0 mm 0.00 in/hr0.0 mm/hr 0.00 in0.0 mm
11:17 PM 33.6°F0.9°C 29.9°F-1.2°C 86% Calm Calm -- 30.14 in1020.7 mb 0.00 in0.0 mm 0.00 in/hr0.0 mm/hr 0.00 in0.0 mm
11:27 PM 33.4°F0.8°C 29.7°F-1.3°C 86% Calm Calm -- 30.14 in1020.7 mb 0.00 in0.0 mm 0.00 in/hr0.0 mm/hr 0.00 in0.0 mm
11:37 PM 33.8°F1.0°C 30.4°F-0.9°C 87% Calm Calm -- 30.14 in1020.7 mb 0.00 in0.0 mm 0.00 in/hr0.0 mm/hr 0.00 in0.0 mm
11:47 PM 33.6°F0.9°C 30.2°F-1.0°C 87% Calm Calm -- 30.14 in1020.7 mb 0.00 in0.0 mm 0.00 in/hr0.0 mm/hr 0.00 in0.0 mm
11:57 PM 33.8°F1.0°C 30.6°F-0.8°C 88% Calm Calm -- 30.14 in1020.7 mb 0.00 in0.0 mm 0.00 in/hr0.0 mm/hr 0.00 in0.0 mm